Time;durP1;ratioP1;P1;durP2;ratioP2;P2;SDS_P1;SDS_P2;PMS_P1;PMS_P2;Temp;Humidity;BMP_temperature;BMP_pressure;BME280_temperature;BME280_humidity;BME280_pressure;Samples;Min_cycle;Max_cycle;Signal;HPM_P1;HPM_P2
2022/02/05 00:02:11;;;;;;;0.80;0.63;;;3.60;87.30;;;;;;5073497;28;20020;-74
2022/02/05 00:04:37;;;;;;;1.10;0.63;;;3.50;87.10;;;;;;5073708;28;20111;-77
2022/02/05 00:07:05;;;;;;;1.05;0.60;;;3.50;87.20;;;;;;5074667;28;20082;-90
2022/02/05 00:12:26;;;;;;;2.03;0.93;;;3.30;87.00;;;;;;5073596;28;20028;-74
2022/02/05 00:15:17;;;;;;;4.25;1.17;;;3.30;87.30;;;;;;5077055;28;20358;-75
2022/02/05 00:33:12;;;;;;;2.20;0.85;;;3.40;86.90;;;;;;5087247;28;20435;-74
2022/02/05 00:42:11;;;;;;;1.90;1.13;;;3.30;86.10;;;;;;5072937;28;20128;-74
2022/02/05 00:44:36;;;;;;;1.30;1.20;;;3.20;85.80;;;;;;5072937;28;20025;-74
2022/02/05 00:47:02;;;;;;;2.35;1.58;;;3.20;86.20;;;;;;5072866;28;20358;-74
2022/02/05 00:49:28;;;;;;;2.05;1.13;;;3.10;86.70;;;;;;5072881;28;20101;-73
2022/02/05 00:52:05;;;;;;;1.33;1.20;;;3.00;86.60;;;;;;5072835;28;20017;-73
2022/02/05 00:54:30;;;;;;;2.15;1.17;;;3.00;86.70;;;;;;5072806;28;20427;-74
2022/02/05 00:59:31;;;;;;;2.53;1.73;;;3.00;86.70;;;;;;5073025;28;20033;-73
2022/02/05 01:01:56;;;;;;;3.15;1.40;;;3.00;86.60;;;;;;5072713;28;20081;-73
2022/02/05 01:04:22;;;;;;;4.55;1.70;;;3.00;86.60;;;;;;5071395;28;20024;-73
2022/02/05 01:06:48;;;;;;;2.42;1.50;;;2.90;86.80;;;;;;5072701;28;20028;-73
2022/02/05 01:09:20;;;;;;;1.55;1.33;;;3.00;86.60;;;;;;5072728;28;20032;-73
2022/02/05 01:11:46;;;;;;;2.78;1.63;;;3.00;86.50;;;;;;5072768;28;20020;-73
2022/02/05 01:14:15;;;;;;;3.47;1.58;;;3.00;86.40;;;;;;5072623;28;20029;-76
2022/02/05 01:19:56;;;;;;;3.58;1.60;;;3.00;85.80;;;;;;5072810;28;20241;-74
2022/02/05 01:22:17;;;;;;;2.30;1.55;;;3.00;86.00;;;;;;5072467;28;20396;-73
2022/02/05 01:24:44;;;;;;;2.13;1.20;;;3.00;85.60;;;;;;5072622;28;20385;-73
2022/02/05 01:27:26;;;;;;;3.72;1.80;;;3.00;85.30;;;;;;5072477;28;20464;-73
2022/02/05 01:30:13;;;;;;;2.60;1.65;;;3.00;85.10;;;;;;5072843;28;20035;-73
2022/02/05 01:32:41;;;;;;;2.63;1.40;;;2.90;85.20;;;;;;5080863;28;20029;-73
2022/02/05 01:35:15;;;;;;;4.03;1.75;;;2.80;85.10;;;;;;5077235;28;20027;-74
2022/02/05 01:57:00;;;;;;;3.28;1.67;;;2.40;85.00;;;;;;5076042;28;20020;-74
2022/02/05 02:09:57;;;;;;;2.90;1.40;;;2.50;83.70;;;;;;5075717;28;20115;-73
2022/02/05 02:12:26;;;;;;;3.65;1.73;;;2.50;83.90;;;;;;5075654;28;20021;-74
2022/02/05 02:15:06;;;;;;;1.77;1.15;;;2.50;83.20;;;;;;5075520;28;20107;-74
2022/02/05 02:28:22;;;;;;;;;;;2.40;82.20;;;;;;4493626;23;19920;-78
2022/02/05 02:30:56;;;;;;;3.15;1.85;;;2.40;82.10;;;;;;5054154;28;19970;-78
2022/02/05 02:33:31;;;;;;;3.45;2.92;;;2.50;82.40;;;;;;5055467;28;20419;-78
2022/02/05 02:35:57;;;;;;;;;;;2.50;82.70;;;;;;5054590;28;20083;-78
2022/02/05 02:38:31;;;;;;;1.58;1.48;;;2.50;82.30;;;;;;5055248;28;19916;-77
2022/02/05 02:41:03;;;;;;;2.03;1.70;;;2.50;82.30;;;;;;5053925;28;20113;-78
2022/02/05 02:43:31;;;;;;;2.63;1.50;;;2.50;82.20;;;;;;5055317;28;20271;-79
2022/02/05 02:45:57;;;;;;;3.92;1.70;;;2.50;81.80;;;;;;5055216;28;20024;-79
2022/02/05 02:48:22;;;;;;;2.55;1.67;;;2.40;81.70;;;;;;5054525;28;20532;-78
2022/02/05 02:59:20;;;;;;;5.47;2.25;;;2.30;82.00;;;;;;5054983;28;20048;-78
2022/02/05 03:01:43;;;;;;;2.85;2.10;;;2.30;82.10;;;;;;5054570;28;20021;-78
2022/02/05 03:04:08;;;;;;;3.95;2.47;;;2.20;82.10;;;;;;5054744;28;20025;-78
2022/02/05 03:06:34;;;;;;;3.83;2.80;;;2.10;82.00;;;;;;5053299;28;20063;-78
2022/02/05 03:08:59;;;;;;;5.10;2.30;;;2.10;82.10;;;;;;5054683;28;20025;-77
2022/02/05 03:11:25;;;;;;;4.32;2.40;;;2.10;81.60;;;;;;5054884;28;20040;-78
2022/02/05 03:13:51;;;;;;;7.05;2.63;;;2.00;81.60;;;;;;5054602;28;20024;-77
2022/02/05 03:16:24;;;;;;;3.17;2.40;;;2.00;81.50;;;;;;5054666;28;20388;-78
2022/02/05 03:21:23;;;;;;;6.00;2.88;;;2.00;81.30;;;;;;5054456;28;20104;-78
2022/02/05 03:23:49;;;;;;;8.00;3.00;;;1.90;81.30;;;;;;5054415;28;20033;-78
2022/02/05 03:26:14;;;;;;;7.78;3.40;;;1.80;81.30;;;;;;5054441;28;20425;-78
2022/02/05 03:28:40;;;;;;;4.43;2.78;;;1.80;81.40;;;;;;5053025;28;20060;-79
2022/02/05 03:31:06;;;;;;;8.48;2.70;;;1.80;81.20;;;;;;5054324;28;20025;-78
2022/02/05 03:33:31;;;;;;;6.13;2.80;;;1.70;81.10;;;;;;5054235;28;20036;-79
2022/02/05 03:35:57;;;;;;;8.40;3.60;;;1.70;81.40;;;;;;5054180;28;20384;-78
2022/02/05 03:38:23;;;;;;;12.50;3.78;;;1.70;81.20;;;;;;5054047;28;20033;-79
2022/02/05 03:40:48;;;;;;;8.60;4.13;;;1.80;81.20;;;;;;5054022;28;20020;-79
2022/02/05 03:43:14;;;;;;;9.27;3.38;;;1.80;81.00;;;;;;5054103;28;20063;-79
2022/02/05 03:45:39;;;;;;;7.97;3.88;;;1.80;80.90;;;;;;5053970;28;20021;-79
2022/02/05 03:48:06;;;;;;;10.35;4.20;;;1.80;80.70;;;;;;5053984;28;20029;-79
2022/02/05 03:50:32;;;;;;;8.93;4.65;;;1.70;80.50;;;;;;5056036;28;20469;-79
2022/02/05 03:52:58;;;;;;;6.05;3.70;;;1.70;80.40;;;;;;5053828;28;20116;-79
2022/02/05 03:55:24;;;;;;;8.55;3.40;;;1.70;80.30;;;;;;5053714;28;20082;-79
2022/02/05 03:57:50;;;;;;;6.22;3.67;;;1.80;80.20;;;;;;5053388;28;20025;-79
2022/02/05 04:00:16;;;;;;;12.20;3.75;;;1.80;80.00;;;;;;5051840;28;20081;-79
2022/02/05 04:02:42;;;;;;;6.22;3.47;;;1.80;79.80;;;;;;5053661;28;20374;-79
2022/02/05 04:05:07;;;;;;;5.53;3.55;;;1.80;79.50;;;;;;5053564;28;20389;-79
2022/02/05 04:07:38;;;;;;;13.93;3.92;;;1.80;79.30;;;;;;5053504;28;20403;-79
2022/02/05 04:10:06;;;;;;;7.75;3.92;;;1.80;79.40;;;;;;5053613;28;20017;-79
2022/02/05 04:18:00;;;;;;;9.88;3.85;;;1.90;78.90;;;;;;5053333;28;20036;-79
2022/02/05 04:20:27;;;;;;;5.55;3.45;;;1.90;79.10;;;;;;5053318;28;20017;-79
2022/02/05 04:22:54;;;;;;;5.10;3.08;;;1.90;79.90;;;;;;5053482;28;20033;-79
2022/02/05 04:25:20;;;;;;;5.38;3.15;;;1.80;79.30;;;;;;5053239;28;20028;-80
2022/02/05 04:27:45;;;;;;;6.07;2.90;;;1.80;79.60;;;;;;5053055;28;20025;-80
2022/02/05 04:30:11;;;;;;;6.57;3.40;;;1.80;79.70;;;;;;5053105;28;20104;-79
2022/02/05 04:32:37;;;;;;;4.60;2.97;;;1.70;79.90;;;;;;5051883;28;20049;-79
2022/02/05 04:35:03;;;;;;;3.90;2.58;;;1.70;80.10;;;;;;5053202;28;20025;-78
2022/02/05 04:37:29;;;;;;;5.88;2.90;;;1.70;80.20;;;;;;5051667;28;20483;-78
2022/02/05 04:40:10;;;;;;;10.43;3.90;;;1.60;80.20;;;;;;5053015;28;20029;-78
2022/02/05 04:42:51;;;;;;;5.38;2.50;;;1.60;80.30;;;;;;5052839;28;20067;-79
2022/02/05 04:45:39;;;;;;;5.10;2.47;;;1.60;80.40;;;;;;5052963;28;20405;-79
2022/02/05 05:01:45;;;;;;;5.28;2.60;;;1.30;80.70;;;;;;5052908;28;20029;-79
2022/02/05 05:20:00;;;;;;;6.32;3.08;;;1.20;81.30;;;;;;5057027;28;20040;-78
2022/02/05 05:22:26;;;;;;;7.25;2.80;;;1.20;81.10;;;;;;5056512;28;20108;-78
2022/02/05 05:24:51;;;;;;;4.78;2.90;;;1.20;80.90;;;;;;5055367;28;20036;-79
2022/02/05 05:27:17;;;;;;;3.55;2.75;;;1.20;80.80;;;;;;5056499;28;20028;-78
2022/02/05 05:29:42;;;;;;;6.93;2.60;;;1.10;80.80;;;;;;5056344;28;20057;-80
2022/02/05 05:32:08;;;;;;;4.57;2.45;;;1.10;80.70;;;;;;5055214;28;20024;-78
2022/02/05 05:34:34;;;;;;;6.05;2.88;;;1.10;80.40;;;;;;5056348;28;20524;-79
2022/02/05 05:37:01;;;;;;;10.20;3.80;;;1.10;80.40;;;;;;5056214;28;20110;-79
2022/02/05 05:39:28;;;;;;;20.95;10.30;;;1.00;80.30;;;;;;5056217;28;20132;-79
2022/02/05 05:41:54;;;;;;;16.70;8.85;;;0.90;81.00;;;;;;5056358;28;20163;-80
2022/02/05 05:44:53;;;;;;;13.00;6.45;;;0.80;82.20;;;;;;5056154;28;20063;-79
2022/02/05 05:52:20;;;;;;;10.65;5.63;;;0.70;82.50;;;;;;5056366;28;20029;-77
2022/02/05 05:54:46;;;;;;;10.95;5.20;;;0.70;82.60;;;;;;5056051;28;20495;-79
2022/02/05 05:57:12;;;;;;;6.47;3.85;;;0.80;82.40;;;;;;5056114;28;20029;-78
2022/02/05 05:59:39;;;;;;;11.23;3.40;;;0.80;82.70;;;;;;5055861;28;20102;-78
2022/02/05 06:02:06;;;;;;;10.30;4.72;;;0.80;82.70;;;;;;5055874;28;20028;-79
2022/02/05 06:04:31;;;;;;;8.57;5.07;;;0.70;82.50;;;;;;5054624;28;20048;-79
2022/02/05 06:06:57;;;;;;;8.13;4.55;;;0.70;82.80;;;;;;5055778;28;20021;-78
2022/02/05 06:09:23;;;;;;;13.25;5.07;;;0.60;83.00;;;;;;5054524;28;20029;-79
2022/02/05 06:11:49;;;;;;;10.90;4.30;;;0.70;83.20;;;;;;5054491;28;20119;-78
2022/02/05 06:14:19;;;;;;;9.77;4.43;;;0.70;83.10;;;;;;5055656;28;20025;-78
2022/02/05 06:16:49;;;;;;;8.23;3.78;;;0.70;83.10;;;;;;5055596;28;20063;-78
2022/02/05 06:19:15;;;;;;;6.90;3.85;;;0.70;82.90;;;;;;5055349;28;20035;-78
2022/02/05 06:21:40;;;;;;;6.57;3.63;;;0.70;82.70;;;;;;5054534;28;20021;-77
2022/02/05 06:24:06;;;;;;;7.70;3.78;;;0.70;82.70;;;;;;5055509;28;20025;-79
2022/02/05 06:26:32;;;;;;;7.30;3.10;;;0.80;82.60;;;;;;5054268;28;20415;-80
2022/02/05 06:28:57;;;;;;;9.18;3.65;;;0.80;82.50;;;;;;5055259;28;20484;-78
2022/02/05 06:31:23;;;;;;;11.30;4.43;;;0.70;82.50;;;;;;5055254;28;20118;-77
2022/02/05 06:33:49;;;;;;;9.00;3.90;;;0.70;82.40;;;;;;5055271;28;20017;-78
2022/02/05 06:36:15;;;;;;;9.63;4.63;;;0.70;82.30;;;;;;5055203;28;20075;-79
2022/02/05 06:38:40;;;;;;;11.27;4.68;;;0.60;82.30;;;;;;5055044;28;20419;-78
2022/02/05 06:41:06;;;;;;;11.02;3.78;;;0.60;82.60;;;;;;5053877;28;20024;-78
2022/02/05 06:43:32;;;;;;;9.30;3.38;;;0.50;82.60;;;;;;5055012;28;20357;-79
2022/02/05 06:45:58;;;;;;;10.93;3.63;;;0.40;82.80;;;;;;5054985;28;20017;-79
2022/02/05 06:48:24;;;;;;;7.90;3.45;;;0.50;82.90;;;;;;5053316;28;20124;-79
2022/02/05 06:50:49;;;;;;;8.25;3.20;;;0.50;82.70;;;;;;5054611;28;20080;-79
2022/02/05 06:53:15;;;;;;;7.82;3.83;;;0.60;82.50;;;;;;5054777;28;20021;-78
2022/02/05 06:55:41;;;;;;;8.27;4.20;;;0.50;82.50;;;;;;5054603;28;20063;-77
2022/02/05 06:58:07;;;;;;;5.57;3.42;;;0.50;82.30;;;;;;5054601;28;20029;-80
2022/02/05 07:00:32;;;;;;;9.02;3.63;;;0.50;82.50;;;;;;5053229;28;20078;-78
2022/02/05 07:02:58;;;;;;;6.63;3.75;;;0.50;82.80;;;;;;5054789;28;20060;-78
2022/02/05 07:05:24;;;;;;;8.32;3.38;;;0.50;82.60;;;;;;5054619;28;20021;-78
2022/02/05 07:07:50;;;;;;;5.85;3.47;;;0.60;82.50;;;;;;5054573;28;20460;-79
2022/02/05 07:10:15;;;;;;;7.00;3.50;;;0.60;82.60;;;;;;5054781;28;20036;-79
2022/02/05 07:15:24;;;;;;;11.43;3.95;;;0.70;82.20;;;;;;5054529;28;20021;-79
2022/02/05 07:20:33;;;;;;;7.75;3.67;;;0.70;81.70;;;;;;5054337;28;20507;-78
2022/02/05 07:31:14;;;;;;;8.80;3.72;;;0.70;81.60;;;;;;5054020;28;20028;-78
2022/02/05 07:33:40;;;;;;;9.80;4.55;;;0.80;81.70;;;;;;5053792;28;20047;-78
2022/02/05 07:36:05;;;;;;;9.73;4.25;;;0.90;81.60;;;;;;5053728;28;20104;-78
2022/02/05 07:38:31;;;;;;;11.00;4.32;;;1.00;81.30;;;;;;5053750;28;20511;-78
2022/02/05 07:40:57;;;;;;;9.48;3.70;;;1.10;81.10;;;;;;5053965;28;20025;-78
2022/02/05 07:43:27;;;;;;;9.50;3.10;;;1.20;80.90;;;;;;5053537;28;20024;-77
2022/02/05 07:45:56;;;;;;;6.00;2.60;;;1.30;80.70;;;;;;5053640;28;20017;-77
2022/02/05 07:48:22;;;;;;;7.03;3.30;;;1.40;80.30;;;;;;5053573;28;20091;-78
2022/02/05 07:50:48;;;;;;;11.43;4.57;;;1.40;79.50;;;;;;5052307;28;20469;-77
2022/02/05 07:53:13;;;;;;;10.30;3.40;;;1.50;79.40;;;;;;5053637;28;20476;-77
2022/02/05 07:55:39;;;;;;;7.40;3.10;;;1.60;79.00;;;;;;5053532;28;20103;-76
2022/02/05 07:58:04;;;;;;;9.02;4.05;;;1.60;78.80;;;;;;5053574;28;20036;-79
2022/02/05 08:00:30;;;;;;;9.27;3.53;;;1.70;78.80;;;;;;5053568;28;20021;-78
2022/02/05 08:02:59;;;;;;;11.15;4.25;;;1.80;78.50;;;;;;5053507;28;20430;-77
2022/02/05 08:05:24;;;;;;;9.90;4.10;;;1.90;78.90;;;;;;5053537;28;20025;-77
2022/02/05 08:07:51;;;;;;;6.72;4.22;;;2.10;79.00;;;;;;5052211;28;20496;-78
2022/02/05 08:10:19;;;;;;;8.55;4.85;;;2.20;78.20;;;;;;5053647;28;20067;-77
2022/02/05 08:12:51;;;;;;;13.02;6.65;;;2.30;77.90;;;;;;5036061;28;20024;-80
2022/02/05 08:15:22;;;;;;;11.88;6.30;;;2.40;77.40;;;;;;5053996;28;20021;-78
2022/02/05 08:17:48;;;;;;;9.82;5.15;;;2.50;76.90;;;;;;5053628;28;20416;-77
2022/02/05 08:20:13;;;;;;;12.15;4.95;;;2.60;76.80;;;;;;5058037;28;20025;-77
2022/02/05 08:22:39;;;;;;;8.23;4.22;;;2.60;76.10;;;;;;5060490;28;20058;-76
2022/02/05 08:25:05;;;;;;;13.55;4.97;;;2.80;76.10;;;;;;5067839;28;20033;-79
2022/02/05 08:27:30;;;;;;;10.13;4.68;;;2.90;75.40;;;;;;5064179;28;20075;-76
2022/02/05 08:29:59;;;;;;;10.30;4.65;;;3.00;74.80;;;;;;5053140;28;20123;-77
2022/02/05 08:32:27;;;;;;;15.15;5.55;;;3.10;74.30;;;;;;5053215;28;20028;-77
2022/02/05 08:34:55;;;;;;;12.75;4.18;;;3.20;73.80;;;;;;5051586;28;20064;-76
2022/02/05 08:37:20;;;;;;;13.10;3.97;;;3.40;72.20;;;;;;5052970;28;20048;-77
2022/02/05 08:39:46;;;;;;;10.57;3.03;;;3.50;71.70;;;;;;5051615;28;20053;-77
2022/02/05 08:42:12;;;;;;;9.80;2.53;;;3.50;69.90;;;;;;5052928;28;20472;-77
2022/02/05 08:44:37;;;;;;;8.43;2.03;;;3.70;68.40;;;;;;5052460;28;20071;-77
2022/02/05 08:47:04;;;;;;;5.53;1.95;;;3.70;65.90;;;;;;5051138;28;20025;-77
2022/02/05 08:49:31;;;;;;;6.88;1.42;;;3.60;65.50;;;;;;5053538;28;20022;-75
2022/02/05 08:52:00;;;;;;;10.15;1.08;;;3.70;68.20;;;;;;5053978;28;20025;-75
2022/02/05 08:54:27;;;;;;;5.93;1.35;;;4.60;80.30;;;;;;5053045;28;20017;-76
2022/02/05 08:56:54;;;;;;;3.47;1.00;;;5.00;67.00;;;;;;5052474;28;20021;-75
2022/02/05 08:59:21;;;;;;;3.97;1.50;;;5.40;67.70;;;;;;5051979;28;20029;-75
2022/02/05 09:01:59;;;;;;;5.45;1.50;;;5.60;63.00;;;;;;5050963;28;20024;-74
2022/02/05 09:04:45;;;;;;;7.47;1.30;;;5.70;59.30;;;;;;5051010;28;20112;-74
2022/02/05 09:07:11;;;;;;;7.82;1.73;;;5.50;56.40;;;;;;5050776;28;20473;-76
2022/02/05 09:09:50;;;;;;;5.70;1.17;;;5.10;57.40;;;;;;5050951;28;20032;-75
2022/02/05 09:12:32;;;;;;;11.38;4.07;;;5.00;57.60;;;;;;5052390;28;20025;-74
2022/02/05 09:14:58;;;;;;;11.50;2.08;;;5.00;57.60;;;;;;5051839;28;20354;-75
2022/02/05 09:17:24;;;;;;;8.23;1.67;;;4.80;57.20;;;;;;5050748;28;20032;-74
2022/02/05 09:19:50;;;;;;;5.40;1.23;;;4.70;58.40;;;;;;5050772;28;20021;-75
2022/02/05 09:22:16;;;;;;;10.30;2.28;;;4.80;58.40;;;;;;5052227;28;20067;-75
2022/02/05 09:24:42;;;;;;;5.25;1.17;;;4.60;59.80;;;;;;5050577;28;20032;-76
2022/02/05 09:27:11;;;;;;;5.43;1.10;;;4.80;59.20;;;;;;5051464;28;20029;-75
2022/02/05 09:29:44;;;;;;;5.93;1.92;;;4.70;58.50;;;;;;5051615;28;20056;-75
2022/02/05 09:32:14;;;;;;;8.95;1.80;;;4.60;60.00;;;;;;5051386;28;20033;-75
2022/02/05 09:35:13;;;;;;;8.13;2.00;;;4.80;59.40;;;;;;5055787;28;20033;-76
2022/02/05 09:38:03;;;;;;;7.55;1.75;;;5.10;59.60;;;;;;5038109;28;20072;-77
2022/02/05 09:40:56;;;;;;;7.25;1.70;;;4.90;59.10;;;;;;5053050;28;20068;-75
2022/02/05 09:43:51;;;;;;;7.05;1.15;;;5.10;58.90;;;;;;5048252;28;20029;-74
2022/02/05 09:46:21;;;;;;;4.38;1.38;;;5.40;57.60;;;;;;5056744;28;20037;-75
2022/02/05 09:48:48;;;;;;;5.03;1.40;;;5.50;57.60;;;;;;5057146;28;20052;-76
2022/02/05 09:51:18;;;;;;;6.60;1.88;;;5.60;57.70;;;;;;5056542;28;20108;-75
2022/02/05 09:53:49;;;;;;;7.97;2.38;;;5.70;58.10;;;;;;5052795;28;20079;-75
2022/02/05 09:56:15;;;;;;;9.27;1.65;;;5.70;57.40;;;;;;5051216;28;20021;-75
2022/02/05 09:58:41;;;;;;;4.97;1.40;;;5.70;56.40;;;;;;5055776;28;20503;-75
2022/02/05 10:01:15;;;;;;;9.35;2.05;;;5.70;57.30;;;;;;5056330;28;20120;-76
2022/02/05 10:03:43;;;;;;;10.55;1.67;;;6.00;56.50;;;;;;5058346;28;20029;-75
2022/02/05 10:06:21;;;;;;;8.85;1.50;;;6.10;55.40;;;;;;5057393;28;20021;-76
2022/02/05 10:09:04;;;;;;;5.90;1.75;;;6.40;54.50;;;;;;5057592;28;20465;-75
2022/02/05 10:11:49;;;;;;;5.30;1.38;;;6.20;54.30;;;;;;5055490;28;20021;-76
2022/02/05 10:14:21;;;;;;;6.65;1.73;;;6.30;54.60;;;;;;5053969;28;20158;-75
2022/02/05 10:16:56;;;;;;;6.25;1.60;;;6.50;55.20;;;;;;5053943;28;20032;-75
2022/02/05 10:19:23;;;;;;;31.65;18.10;;;6.30;55.20;;;;;;5053750;28;20036;-75
2022/02/05 10:22:04;;;;;;;6.43;1.63;;;6.70;55.00;;;;;;5055204;28;20091;-75
2022/02/05 10:24:30;;;;;;;12.13;5.78;;;6.90;53.70;;;;;;5055104;28;20104;-77
2022/02/05 10:26:56;;;;;;;10.00;1.77;;;7.20;53.30;;;;;;5057357;28;20100;-76
2022/02/05 10:29:22;;;;;;;8.85;1.83;;;6.90;53.50;;;;;;5054794;28;20456;-79
2022/02/05 10:35:20;;;;;;;8.18;1.50;;;7.00;54.00;;;;;;5063594;28;20089;-78
2022/02/05 10:37:58;;;;;;;6.55;2.30;;;6.90;52.80;;;;;;5061287;28;20037;-75
2022/02/05 10:43:14;;;;;;;4.45;1.55;;;6.60;54.10;;;;;;5062337;28;20036;-78
2022/02/05 10:45:57;;;;;;;6.28;1.75;;;6.40;54.40;;;;;;5042425;28;20397;-78
2022/02/05 10:48:48;;;;;;;7.25;1.73;;;6.30;56.10;;;;;;5044580;28;20093;-78
2022/02/05 10:51:49;;;;;;;4.78;1.40;;;6.50;54.90;;;;;;5053495;28;20037;-78
2022/02/05 10:54:48;;;;;;;7.55;1.50;;;6.70;54.60;;;;;;5053844;28;20033;-75
2022/02/05 10:57:59;;;;;;;4.57;1.42;;;6.90;54.60;;;;;;5061703;28;20374;-79
2022/02/05 11:06:31;;;;;;;4.60;1.17;;;6.90;51.30;;;;;;5062333;28;20073;-79
2022/02/05 11:09:03;;;;;;;12.30;2.42;;;6.80;50.40;;;;;;5092256;28;20035;-78
2022/02/05 11:14:27;;;;;;;8.32;1.20;;;6.50;52.30;;;;;;5054948;28;20040;-76
2022/02/05 11:19:19;;;;;;;7.97;1.17;;;6.40;52.50;;;;;;5053927;28;20029;-77
2022/02/05 11:21:45;;;;;;;9.38;1.17;;;6.60;51.70;;;;;;5053951;28;20084;-80
2022/02/05 11:24:12;;;;;;;10.77;1.42;;;6.60;51.60;;;;;;5052957;28;20032;-77
2022/02/05 11:26:39;;;;;;;3.85;1.33;;;6.80;51.80;;;;;;5053790;28;20021;-77
2022/02/05 11:29:05;;;;;;;7.55;1.42;;;7.00;49.60;;;;;;5052378;28;20105;-76
2022/02/05 11:31:38;;;;;;;4.40;1.05;;;7.40;48.90;;;;;;5052419;28;20017;-78
2022/02/05 11:34:48;;;;;;;4.95;1.33;;;7.90;47.50;;;;;;5052788;28;20025;-76
2022/02/05 11:37:17;;;;;;;5.93;1.05;;;8.40;45.60;;;;;;5054143;28;20021;-77
2022/02/05 11:39:51;;;;;;;5.63;0.82;;;8.10;45.70;;;;;;5054494;28;20083;-75
2022/02/05 11:42:32;;;;;;;7.40;1.17;;;7.90;47.10;;;;;;5053977;28;20495;-77
2022/02/05 11:44:59;;;;;;;4.35;1.42;;;7.80;46.90;;;;;;5054416;28;20033;-78
2022/02/05 11:47:30;;;;;;;10.40;1.98;;;7.60;47.30;;;;;;5055152;28;20036;-78
2022/02/05 11:49:56;;;;;;;7.68;1.17;;;7.50;48.00;;;;;;5052173;28;20017;-78
2022/02/05 11:52:37;;;;;;;5.70;1.00;;;7.40;47.50;;;;;;5054564;28;20029;-76
2022/02/05 11:55:14;;;;;;;5.25;0.95;;;7.70;47.60;;;;;;5052906;28;20499;-79
2022/02/05 11:57:43;;;;;;;6.35;2.47;;;7.70;46.00;;;;;;5054556;28;20039;-79
2022/02/05 12:00:11;;;;;;;4.60;1.40;;;7.80;45.70;;;;;;5052611;28;20021;-77
2022/02/05 12:02:42;;;;;;;3.85;1.00;;;8.20;44.90;;;;;;5053746;28;20025;-80
2022/02/05 12:05:17;;;;;;;6.97;1.05;;;8.70;44.40;;;;;;5052314;28;20029;-81
2022/02/05 12:08:00;;;;;;;4.65;1.15;;;9.10;42.20;;;;;;5054525;28;20052;-76
2022/02/05 12:10:50;;;;;;;5.82;1.20;;;9.30;42.40;;;;;;5053453;28;20028;-77
2022/02/05 12:13:26;;;;;;;4.35;1.75;;;9.30;42.00;;;;;;5052430;28;20032;-77
2022/02/05 12:15:54;;;;;;;6.57;1.38;;;9.40;40.10;;;;;;5054328;28;20021;-80
2022/02/05 12:18:24;;;;;;;6.90;1.10;;;9.60;41.50;;;;;;5053213;28;20033;-80
2022/02/05 12:26:00;;;;;;;4.05;0.98;;;9.70;39.90;;;;;;5054125;28;20380;-78
2022/02/05 12:28:29;;;;;;;4.47;1.10;;;9.60;39.20;;;;;;5053322;28;20078;-78
2022/02/05 12:31:00;;;;;;;6.30;0.85;;;10.00;38.80;;;;;;5051884;28;20031;-77
2022/02/05 12:33:41;;;;;;;4.35;0.85;;;10.10;37.00;;;;;;5052654;28;20033;-77
2022/02/05 12:36:06;;;;;;;2.65;0.65;;;9.50;39.20;;;;;;5054355;28;20033;-82
2022/02/05 12:38:39;;;;;;;8.27;3.50;;;10.00;37.80;;;;;;5053330;28;20112;-77
2022/02/05 12:41:06;;;;;;;3.17;0.70;;;10.10;37.70;;;;;;5053305;28;20028;-78
2022/02/05 12:43:59;;;;;;;4.30;0.73;;;10.30;36.80;;;;;;5052450;28;20032;-78
2022/02/05 12:46:38;;;;;;;4.88;0.80;;;10.70;36.00;;;;;;5052535;28;20488;-81
2022/02/05 12:49:11;;;;;;;4.95;1.00;;;11.10;35.50;;;;;;5053296;28;20021;-80
2022/02/05 12:51:45;;;;;;;3.97;1.10;;;11.50;35.40;;;;;;5052898;28;20021;-79
2022/02/05 12:54:15;;;;;;;5.63;1.67;;;11.90;33.60;;;;;;5051340;28;20032;-79
2022/02/05 12:56:43;;;;;;;5.07;1.25;;;11.90;33.90;;;;;;5052463;28;20112;-77
2022/02/05 12:59:14;;;;;;;6.60;1.10;;;12.20;32.80;;;;;;5053110;28;20037;-81
2022/02/05 13:02:01;;;;;;;2.80;0.80;;;12.60;32.20;;;;;;5052540;28;20037;-82
2022/02/05 13:04:30;;;;;;;6.05;1.58;;;13.20;31.70;;;;;;5051320;28;20024;-78
2022/02/05 13:07:18;;;;;;;4.70;1.08;;;13.90;30.50;;;;;;5052329;28;20097;-76
2022/02/05 13:09:56;;;;;;;5.95;1.42;;;14.30;29.90;;;;;;5053009;28;20021;-77
2022/02/05 13:12:39;;;;;;;3.97;0.90;;;14.90;28.90;;;;;;5053182;28;20025;-79
2022/02/05 13:15:20;;;;;;;7.22;1.33;;;15.30;27.10;;;;;;5052699;28;20099;-83
2022/02/05 13:36:46;;;;;;;3.03;0.70;;;21.10;17.50;;;;;;5056381;28;20036;-81
2022/02/05 13:42:09;;;;;;;5.13;1.02;;;22.30;15.60;;;;;;5057928;28;20037;-82
2022/02/05 13:44:58;;;;;;;2.60;0.88;;;23.20;14.40;;;;;;5058350;28;20388;-82
2022/02/05 13:47:25;;;;;;;1.33;0.73;;;21.20;14.20;;;;;;5056626;28;20051;-79
2022/02/05 13:50:23;;;;;;;1.38;0.70;;;21.30;14.70;;;;;;5060735;28;20037;-77
2022/02/05 13:52:51;;;;;;;4.00;0.98;;;21.80;14.80;;;;;;5055882;28;20017;-78
2022/02/05 13:55:49;;;;;;;2.67;1.00;;;23.40;14.40;;;;;;5055922;28;20029;-75
2022/02/05 13:58:15;;;;;;;3.22;1.05;;;24.00;13.20;;;;;;5022338;28;20396;-75
2022/02/05 14:00:42;;;;;;;2.25;0.80;;;24.30;12.20;;;;;;5055757;28;20029;-76
2022/02/05 14:03:09;;;;;;;3.28;1.00;;;21.80;13.40;;;;;;5055998;28;20021;-78
2022/02/05 14:05:42;;;;;;;1.85;0.95;;;23.50;13.50;;;;;;5056263;28;20021;-78
2022/02/05 14:08:08;;;;;;;8.82;1.23;;;25.20;12.50;;;;;;5055870;28;20044;-76
2022/02/05 14:10:34;;;;;;;2.05;1.05;;;24.50;11.80;;;;;;5055604;28;20099;-77
2022/02/05 14:13:00;;;;;;;2.75;1.05;;;23.60;11.90;;;;;;5055772;28;20035;-78
2022/02/05 14:15:28;;;;;;;2.63;1.05;;;24.50;11.90;;;;;;5053755;28;20021;-77
2022/02/05 14:18:11;;;;;;;2.88;1.13;;;24.90;11.40;;;;;;5055528;28;20013;-77
2022/02/05 14:20:48;;;;;;;2.15;0.70;;;25.80;10.90;;;;;;5055460;28;20021;-77
2022/02/05 14:23:17;;;;;;;5.20;1.35;;;25.60;10.30;;;;;;5055527;28;20025;-77
2022/02/05 14:25:51;;;;;;;8.05;2.30;;;23.40;11.00;;;;;;5055126;28;20025;-77
2022/02/05 14:28:27;;;;;;;2.92;1.35;;;20.90;12.80;;;;;;5054940;28;20060;-78
2022/02/05 14:31:05;;;;;;;4.53;1.42;;;19.30;14.60;;;;;;5055603;28;20021;-76
2022/02/05 14:33:42;;;;;;;3.55;1.60;;;20.30;16.30;;;;;;5055201;28;20025;-76
2022/02/05 14:40:21;;;;;;;5.18;1.80;;;21.50;15.70;;;;;;5054938;28;20115;-76
2022/02/05 14:41:40;;;;;;;3.40;1.77;;;23.50;14.10;;;;;;5055179;28;20035;-76
2022/02/05 14:44:06;;;;;;;2.90;1.52;;;24.40;12.90;;;;;;5054473;28;20029;-75
2022/02/05 14:46:31;;;;;;;3.42;1.42;;;24.90;12.00;;;;;;5055359;28;20033;-77
2022/02/05 14:48:57;;;;;;;2.65;1.00;;;24.40;11.70;;;;;;5054896;28;20033;-77
2022/02/05 14:51:22;;;;;;;4.13;1.40;;;25.20;11.50;;;;;;5058547;28;20372;-77
2022/02/05 14:53:48;;;;;;;4.88;1.88;;;24.90;11.20;;;;;;5060980;28;20090;-77
2022/02/05 14:56:13;;;;;;;3.25;1.45;;;24.00;11.30;;;;;;5060669;28;20021;-78
2022/02/05 14:58:39;;;;;;;3.90;1.52;;;25.00;11.30;;;;;;5061125;28;20021;-78
2022/02/05 15:01:05;;;;;;;3.67;1.50;;;25.90;10.30;;;;;;5060238;28;20025;-78
2022/02/05 15:03:34;;;;;;;3.28;1.20;;;24.40;10.40;;;;;;5060786;28;20028;-77
2022/02/05 15:06:04;;;;;;;4.13;1.63;;;24.00;11.30;;;;;;5061237;28;20025;-77
2022/02/05 15:08:30;;;;;;;3.30;1.38;;;22.00;12.10;;;;;;5058618;28;20497;-79
2022/02/05 15:10:55;;;;;;;4.47;1.45;;;21.00;13.90;;;;;;5058157;28;20025;-77
2022/02/05 15:13:21;;;;;;;3.00;1.10;;;21.10;14.80;;;;;;5058341;28;20025;-77
2022/02/05 15:15:52;;;;;;;4.40;1.40;;;20.60;15.90;;;;;;5059520;28;20429;-77
2022/02/05 15:18:17;;;;;;;6.93;1.30;;;20.50;16.60;;;;;;5059722;28;20075;-77
2022/02/05 15:20:43;;;;;;;3.30;1.85;;;21.10;16.40;;;;;;5057432;28;20404;-77
2022/02/05 15:23:09;;;;;;;4.15;1.50;;;21.70;16.10;;;;;;5055620;28;20033;-77
2022/02/05 15:25:35;;;;;;;5.40;1.15;;;21.60;15.80;;;;;;5059568;28;20060;-79
2022/02/05 15:28:00;;;;;;;3.58;1.30;;;21.70;15.60;;;;;;5059764;28;20037;-77
2022/02/05 15:30:29;;;;;;;4.75;1.40;;;20.90;15.60;;;;;;5060910;28;20035;-78
2022/02/05 15:32:55;;;;;;;4.07;1.20;;;21.60;15.80;;;;;;5058760;28;20028;-78
2022/02/05 15:35:21;;;;;;;4.03;1.20;;;21.70;15.50;;;;;;5059111;28;20025;-77
2022/02/05 15:37:46;;;;;;;3.53;1.20;;;20.20;16.20;;;;;;5061222;28;20039;-79
2022/02/05 15:40:26;;;;;;;4.10;1.40;;;20.60;16.50;;;;;;5061372;28;20043;-78
2022/02/05 15:45:36;;;;;;;4.05;1.70;;;21.80;15.80;;;;;;5059291;28;20035;-80
2022/02/05 15:48:01;;;;;;;5.70;1.60;;;21.20;15.30;;;;;;5061538;28;20064;-78
2022/02/05 15:50:27;;;;;;;5.53;1.83;;;20.80;15.60;;;;;;5061613;28;20055;-77
2022/02/05 15:52:53;;;;;;;3.97;1.30;;;20.10;16.40;;;;;;5055589;28;20075;-76
2022/02/05 15:55:24;;;;;;;4.70;1.70;;;20.40;16.50;;;;;;5052329;28;20031;-77
2022/02/05 15:58:08;;;;;;;4.68;2.10;;;19.20;16.70;;;;;;5054028;28;20029;-77
2022/02/05 16:00:37;;;;;;;5.13;1.50;;;18.30;17.90;;;;;;5055729;28;20017;-76
2022/02/05 16:03:03;;;;;;;3.72;1.70;;;17.70;18.90;;;;;;5055258;28;20044;-77
2022/02/05 16:05:29;;;;;;;8.07;2.25;;;17.20;19.90;;;;;;5054667;28;20013;-77
2022/02/05 16:07:55;;;;;;;9.63;2.70;;;16.20;21.00;;;;;;5054375;28;20033;-76
2022/02/05 16:10:22;;;;;;;12.55;3.85;;;14.70;23.30;;;;;;5053892;28;20104;-77
2022/02/05 16:12:48;;;;;;;13.25;3.15;;;13.60;25.50;;;;;;5053920;28;20449;-76
2022/02/05 16:15:16;;;;;;;4.63;1.92;;;12.50;28.00;;;;;;5054194;28;20013;-77